Inicio METAR Ruta Wind Satelite

Informe Meteorológico

Fecha: 2021/09/21 15:21:41 Local
2021.09.21 20:21 UTC


Operación:
SKPC 212000Z 24009KT 9999 5000W TS SCT017CB SCT070 28/25 Q1008 RMK CB/W A2976 =